Latest Weather Observations for Cape Byron

IDN60801

Issued at 9:04 am EDT Friday 6 March 2015 (issued every 30 minutes, with the page automatically refreshed every 10 minutes)

About weather observations | Map of weather stations | Latest weather observations for NSW | Other Formats
Station Details ID: 058216 Name: CAPE BYRON AWS Lat: -28.64 Lon: 153.64 Height: 95.0 m
Data from the previous 72 hours. | See also: Recent months at Cape Byron
Date/Time
EDT
Temp
°C
App
Temp
°C
Dew
Point
Rel
Hum
%
Delta-T
°C
Wind Press
QNH
hPa
Press
MSL
hPa
Rain
since 9 am
mm
Dir
 
Spd
km/h
Gust
km/h
Spd
kts
Gust
kts
06/09:00am 22.9 22.6 16.4 67 4.0 ENE 13 26 7 14 1010.4 1009.9 0.0
06/08:30am 23.1 21.7 16.6 67 4.0 E 19 30 10 16 1010.2 1009.7 0.0
06/08:00am 23.0 21.2 17.0 69 3.7 E 22 32 12 17 1009.9 1009.4 0.0
06/07:30am 23.0 21.5 16.3 66 4.1 E 19 30 10 16 1009.6 1009.1 0.0
06/07:00am 23.0 19.6 16.8 68 3.8 E 30 37 16 20 1009.2 1008.7 0.0
06/06:30am 22.9 19.7 16.4 67 4.0 E 28 35 15 19 1009.2 1008.7 0.0
06/06:00am 23.0 19.5 16.5 67 4.0 E 30 35 16 19 1009.3 1008.8 0.0
06/05:30am 23.1 19.3 16.6 67 4.0 E 32 39 17 21 1009.3 1008.8 0.0
06/05:00am 23.1 18.8 16.9 68 3.8 E 35 43 19 23 1009.0 1008.5 0.0
06/04:30am 23.2 18.4 16.7 67 4.0 ESE 37 48 20 26 1009.2 1008.7 0.0
06/04:00am 23.3 17.5 16.1 64 4.4 ESE 41 54 22 29 1009.4 1008.9 0.0
06/03:30am 23.5 18.0 16.8 66 4.1 SE 41 48 22 26 1009.6 1009.1 0.0
06/03:00am 23.5 17.9 16.5 65 4.3 SE 41 52 22 28 1009.9 1009.4 0.0
06/02:30am 23.4 17.0 16.9 67 4.0 ESE 46 56 25 30 1009.8 1009.3 0.0
06/02:00am 23.7 17.7 17.9 70 3.6 SE 46 56 25 30 1010.3 1009.8 0.0
06/01:30am 23.8 18.0 17.3 67 4.0 SE 44 59 24 32 1010.2 1009.7 0.0
06/01:00am 23.8 18.9 17.3 67 4.0 SE 39 57 21 31 1010.6 1010.1 0.0
06/12:35am 23.9 19.3 17.9 69 3.8 SSE 39 57 21 31 1010.3 1009.8 0.0
06/12:30am 24.0 19.0 17.0 65 4.3 SSE 39 54 21 29 1010.5 1010.0 0.0
06/12:06am 24.1 19.6 17.4 66 4.2 SSE 37 56 20 30 1010.5 1010.0 0.0
06/12:00am 24.3 19.8 18.2 68 3.9 SSE 39 56 21 30 1010.5 1010.0 0.0
 
Date/Time
EDT
Temp
°C
App
Temp
°C
Dew
Point
Rel
Hum
%
Delta-T
°C
Wind Press
QNH
hPa
Press
MSL
hPa
Rain
since 9 am
mm
Dir
 
Spd
km/h
Gust
km/h
Spd
kts
Gust
kts
05/11:30pm 24.5 19.6 18.2 68 4.0 SSE 41 56 22 30 1010.3 1009.8 0.0
05/11:00pm 24.7 19.3 17.9 66 4.3 SSE 43 57 23 31 1010.4 1009.9 0.0
05/10:33pm 25.2 20.7 17.4 62 4.9 SSE 37 57 20 31 1010.3 1009.8 0.0
05/10:30pm 25.3 21.5 18.2 64 4.5 SSE 35 48 19 26 1010.3 1009.8 0.0
05/10:00pm 25.9 20.4 16.7 57 5.7 SSE 41 50 22 27 1010.0 1009.5 0.0
05/09:56pm 25.9 21.3 17.0 58 5.5 SSE 37 48 20 26 1009.9 1009.4 0.0
05/09:30pm 26.0 20.4 18.7 64 4.7 SE 46 54 25 29 1009.2 1008.7 0.0
05/09:00pm 26.4 24.2 20.3 69 4.0 SE 32 44 17 24 1008.7 1008.2 0.0
05/08:30pm 26.7 22.8 21.2 72 3.7 SE 43 48 23 26 1007.7 1007.2 0.0
05/08:00pm 27.0 23.3 21.5 72 3.7 SE 43 50 23 27 1006.9 1006.4 0.0
05/07:30pm 27.3 26.2 22.5 75 3.3 SE 32 35 17 19 1006.3 1005.8 0.0
05/07:00pm 27.4 27.8 23.8 81 2.5 SE 28 32 15 17 1005.6 1005.1 0.0
05/06:30pm 27.8 31.1 23.8 79 2.8 ENE 13 20 7 11 1004.9 1004.5 0.0
05/06:00pm 28.0 29.7 23.4 76 3.2 N 20 26 11 14 1003.9 1003.5 0.0
05/05:30pm 27.9 29.6 23.1 75 3.3 NE 19 26 10 14 1003.3 1002.9 0.0
05/05:00pm 29.2 30.2 22.9 69 4.3 NNE 22 30 12 16 1003.1 1002.7 0.0
05/04:30pm 29.4 30.3 22.6 67 4.6 NNE 22 30 12 16 1003.0 1002.6 0.0
05/04:00pm 29.8 30.1 22.3 64 5.1 NNE 24 30 13 16 1003.3 1002.9 0.0
05/03:30pm 29.9 31.0 22.3 63 5.2 NNE 20 30 11 16 1003.4 1003.0 0.0
05/03:00pm 29.8 31.5 22.3 64 5.1 NNE 17 28 9 15 1003.9 1003.5 0.0
05/02:30pm 30.3 31.8 22.7 64 5.2 NNE 19 26 10 14 1004.2 1003.8 0.0
05/02:00pm 30.2 33.1 23.1 65 4.9 NNE 13 22 7 12 1004.6 1004.2 0.0
05/01:30pm 29.4 31.4 22.9 68 4.5 NNE 17 26 9 14 1005.2 1004.8 0.0
05/01:00pm 28.4 29.5 22.4 70 4.1 NNE 20 30 11 16 1005.6 1005.1 0.0
05/12:30pm 28.5 29.7 22.5 70 4.1 N 20 30 11 16 1005.9 1005.4 0.0
05/12:00pm 28.8 30.1 22.3 68 4.4 N 19 26 10 14 1006.3 1005.8 0.0
05/11:30am 28.8 30.9 22.5 68 4.3 N 15 20 8 11 1006.9 1006.4 0.0
05/11:00am 28.4 30.6 21.9 68 4.4 NNW 13 17 7 9 1007.3 1006.8 0.0
05/10:30am 27.3 28.7 21.1 69 4.1 N 15 20 8 11 1007.2 1006.7 0.0
05/10:00am 26.4 27.9 20.5 70 3.9 NNW 13 19 7 10 1007.5 1007.0 0.0
05/09:30am 25.8 26.7 20.1 71 3.7 N 15 20 8 11 1007.7 1007.2 0.0
05/09:00am 25.3 25.8 20.1 73 3.4 N 17 20 9 11 1007.8 1007.3 0.0
05/08:30am 24.6 25.4 19.9 75 3.0 N 15 19 8 10 1007.8 1007.3 0.0
05/08:00am 24.2 25.2 19.5 75 3.0 N 13 20 7 11 1008.0 1007.5 0.0
05/07:30am 24.0 24.4 19.9 78 2.7 NNW 17 28 9 15 1007.5 1007.0 0.0
05/07:00am 23.8 22.9 19.9 79 2.5 NNW 24 32 13 17 1007.1 1006.6 0.0
05/06:30am 23.9 22.9 20.4 81 2.3 N 26 33 14 18 1006.9 1006.4 0.0
05/06:00am 23.9 22.4 20.2 80 2.4 N 28 35 15 19 1006.8 1006.3 0.0
05/05:30am 24.0 22.4 20.1 79 2.5 N 28 39 15 21 1006.8 1006.3 0.0
05/05:00am 24.0 22.5 20.3 80 2.4 N 28 37 15 20 1007.0 1006.5 0.0
05/04:30am 24.0 21.9 20.5 81 2.3 N 32 41 17 22 1007.2 1006.7 0.0
05/04:00am 23.9 21.4 20.2 80 2.4 N 33 50 18 27 1007.3 1006.8 0.0
05/03:30am 24.0 21.6 20.3 80 2.4 N 33 44 18 24 1007.7 1007.2 0.0
05/03:00am 24.2 21.5 20.5 80 2.4 N 35 46 19 25 1008.2 1007.7 0.0
05/02:30am 24.3 21.8 20.2 78 2.7 N 33 46 18 25 1008.5 1008.0 0.0
05/02:00am 24.4 21.5 20.1 77 2.8 N 35 46 19 25 1008.9 1008.4 0.0
05/01:30am 24.5 22.2 20.6 79 2.6 N 33 46 18 25 1009.3 1008.8 0.0
05/01:00am 24.5 22.5 20.8 80 2.4 N 32 43 17 23 1009.9 1009.4 0.0
05/12:30am 24.7 22.4 20.6 78 2.7 N 33 46 18 25 1010.2 1009.7 0.0
05/12:00am 24.8 22.4 20.3 76 2.9 N 33 44 18 24 1010.6 1010.1 0.0
 
Date/Time
EDT
Temp
°C
App
Temp
°C
Dew
Point
Rel
Hum
%
Delta-T
°C
Wind Press
QNH
hPa
Press
MSL
hPa
Rain
since 9 am
mm
Dir
 
Spd
km/h
Gust
km/h
Spd
kts
Gust
kts
04/11:30pm 24.8 22.4 20.3 76 2.9 N 33 46 18 25 1011.0 1010.5 0.0
04/11:00pm 24.9 22.9 20.8 78 2.7 N 32 46 17 25 1011.3 1010.9 0.0
04/10:30pm 25.0 22.9 20.5 76 2.9 N 32 41 17 22 1011.5 1011.1 0.0
04/10:00pm 25.0 23.2 20.3 75 3.1 N 30 43 16 23 1011.9 1011.5 0.0
04/09:30pm 25.0 23.2 20.3 75 3.1 N 30 41 16 22 1011.9 1011.5 0.0
04/09:00pm 25.1 22.7 19.9 73 3.4 N 32 43 17 23 1011.8 1011.4 0.0
04/08:30pm 25.1 23.4 19.7 72 3.5 N 28 43 15 23 1011.6 1011.2 0.0
04/08:00pm 25.2 22.9 19.3 70 3.8 N 30 39 16 21 1011.4 1011.0 0.0
04/07:30pm 25.3 22.7 18.7 67 4.2 N 30 37 16 20 1011.3 1010.9 0.0
04/07:00pm 25.5 23.2 18.4 65 4.5 NNE 28 39 15 21 1011.0 1010.5 0.0
04/06:30pm 25.8 23.8 18.2 63 4.8 NNE 26 39 14 21 1010.9 1010.4 0.0
04/06:00pm 26.0 24.0 18.2 62 5.0 NNE 26 35 14 19 1010.9 1010.4 0.0
04/05:30pm 26.1 24.6 18.5 63 4.9 NNE 24 35 13 19 1011.1 1010.7 0.0
04/05:00pm 26.3 24.6 18.2 61 5.2 NNE 24 32 13 17 1011.1 1010.7 0.0
04/04:30pm 26.5 25.0 17.6 58 5.6 NNE 22 32 12 17 1011.2 1010.8 0.0
04/04:00pm 26.7 25.6 17.7 57 5.7 NNE 20 30 11 16 1011.7 1011.3 0.0
04/03:30pm 27.1 26.0 17.8 56 5.9 NNE 20 28 11 15 1011.9 1011.5 0.0
04/03:00pm 27.8 27.0 18.5 57 6.0 NNE 20 30 11 16 1012.4 1012.0 0.0
04/02:30pm 28.1 26.8 19.1 58 5.8 NE 24 32 13 17 1012.8 1012.4 0.0
04/02:00pm 28.1 26.9 19.3 58 5.7 NE 24 30 13 16 1013.4 1013.0 0.0
04/01:30pm 27.9 26.7 18.3 56 6.1 NE 22 28 12 15 1013.8 1013.4 0.0
04/01:00pm 28.1 26.7 17.9 54 6.5 NE 22 28 12 15 1014.0 1013.6 0.0
04/12:30pm 28.0 27.6 18.1 55 6.3 NE 17 24 9 13 1014.4 1014.0 0.0
04/12:00pm 27.2 26.9 18.2 58 5.7 NNE 17 20 9 11 1014.5 1014.1 0.0
04/11:30am 27.3 27.8 18.3 58 5.8 NNE 13 19 7 10 1015.1 1014.7 0.0
04/11:00am 27.1 27.7 18.7 60 5.4 N 13 19 7 10 1015.3 1014.9 0.0
04/10:30am 26.1 27.2 18.0 61 5.1 N 9 15 5 8 1015.4 1015.0 0.0
04/10:00am 25.9 27.3 18.6 64 4.7 N 9 13 5 7 1015.3 1014.9 0.0
04/09:30am 25.2 26.6 18.6 67 4.2 N 9 11 5 6 1015.1 1014.7 0.0
04/09:00am 24.4 25.6 18.3 69 3.9 N 9 11 5 6 1014.9 1014.5 0.0
04/08:30am 23.7 25.4 18.1 71 3.5 NW 6 9 3 5 1014.8 1014.4 0.0
04/08:00am 22.9 24.4 17.6 72 3.3 NNW 6 7 3 4 1014.6 1014.2 0.0
04/07:30am 21.4 22.7 17.6 79 2.4 NW 7 9 4 5 1014.4 1014.0 0.0
04/07:00am 21.1 22.0 17.5 80 2.2 NW 9 13 5 7 1013.9 1013.5 0.0
04/06:30am 21.3 22.1 17.3 78 2.5 WNW 9 13 5 7 1013.6 1013.2 0.0
04/06:00am 22.0 22.2 17.6 76 2.7 W 13 13 7 7 1013.6 1013.2 0.0
04/05:30am 22.1 22.7 17.7 76 2.7 W 11 13 6 7 1013.4 1013.0 0.0
04/05:00am 22.0 22.6 17.6 76 2.7 W 11 13 6 7 1013.3 1012.9 0.0
04/04:30am 21.7 22.5 17.3 76 2.7 WNW 9 9 5 5 1013.4 1013.0 0.0
04/04:00am 22.0 23.3 17.6 76 2.7 WNW 7 9 4 5 1013.5 1013.1 0.0
04/03:30am 21.9 22.8 17.5 76 2.7 WNW 9 13 5 7 1013.9 1013.5 0.0
04/03:00am 21.6 22.4 17.4 77 2.6 NW 9 11 5 6 1013.9 1013.5 0.0
04/02:30am 22.2 23.4 17.3 74 3.0 NW 7 9 4 5 1014.4 1014.0 0.0
04/02:00am 22.3 23.5 17.4 74 3.0 NW 7 9 4 5 1015.1 1014.7 0.0
04/01:30am 22.9 24.5 17.8 73 3.2 NE 6 9 3 5 1015.4 1015.0 0.0
04/01:00am 23.0 24.3 17.5 71 3.4 ESE 7 11 4 6 1015.8 1015.4 0.0
04/12:30am 23.1 24.0 17.6 71 3.4 E 9 15 5 8 1016.0 1015.6 0.0
04/12:00am 23.2 23.8 17.6 71 3.5 E 11 17 6 9 1016.3 1015.8 0.0
 
Date/Time
EDT
Temp
°C
App
Temp
°C
Dew
Point
Rel
Hum
%
Delta-T
°C
Wind Press
QNH
hPa
Press
MSL
hPa
Rain
since 9 am
mm
Dir
 
Spd
km/h
Gust
km/h
Spd
kts
Gust
kts
03/11:30pm 23.3 23.5 17.7 71 3.5 E 13 19 7 10 1016.4 1015.9 0.0
03/11:00pm 23.3 23.1 17.7 71 3.5 E 15 20 8 11 1016.6 1016.1 0.0
03/10:30pm 23.4 23.4 18.1 72 3.3 E 15 22 8 12 1016.7 1016.2 0.0
03/10:00pm 23.4 22.5 17.8 71 3.5 E 19 22 10 12 1016.4 1015.9 0.0
03/09:30pm 23.2 22.6 17.6 71 3.5 E 17 20 9 11 1016.3 1015.8 0.0
03/09:00pm 23.4 22.8 17.6 70 3.6 E 17 20 9 11 1015.9 1015.5 0.0
03/08:30pm 23.5 23.5 17.3 68 3.9 E 13 24 7 13 1015.6 1015.2 0.0
03/08:00pm 23.6 22.4 17.1 67 4.0 E 19 24 10 13 1015.2 1014.8 0.0
03/07:30pm 23.8 22.7 17.3 67 4.0 E 19 24 10 13 1015.0 1014.6 0.0
03/07:00pm 24.6 23.6 17.6 65 4.4 E 19 24 10 13 1014.6 1014.2 0.0
03/06:30pm 25.8 24.7 17.7 61 5.1 E 20 24 11 13 1014.4 1014.0 0.0
03/06:00pm 26.2 25.1 17.8 60 5.3 E 20 26 11 14 1014.2 1013.8 0.0
03/05:30pm 25.9 24.4 16.7 57 5.7 ESE 20 28 11 15 1014.2 1013.8 0.0
03/05:00pm 26.4 25.1 17.2 57 5.8 E 20 28 11 15 1014.2 1013.8 0.0
03/04:30pm 26.0 24.4 16.5 55 5.9 ESE 20 26 11 14 1014.1 1013.7 0.0
03/04:00pm 26.1 24.5 16.4 55 6.0 SE 20 24 11 13 1014.2 1013.8 0.0
03/03:30pm 26.4 24.7 16.3 53 6.2 ESE 20 22 11 12 1014.3 1013.9 0.0
03/03:00pm 27.0 26.1 17.8 57 5.8 ESE 19 24 10 13 1014.7 1014.3 0.0
03/02:30pm 26.8 26.6 18.4 60 5.4 SE 17 20 9 11 1015.2 1014.8 0.0
03/02:00pm 26.9 26.7 18.5 60 5.4 ESE 17 20 9 11 1015.5 1015.1 0.0
03/01:30pm 26.9 27.2 18.7 60 5.3 SE 15 20 8 11 1015.8 1015.4 0.0
03/01:00pm 26.4 26.8 19.0 63 4.8 SSE 15 19 8 10 1016.0 1015.6 0.0
03/12:30pm 26.0 26.5 19.2 66 4.4 SSE 15 19 8 10 1016.3 1015.8 0.0
03/12:00pm 25.8 26.9 19.7 69 4.0 S 13 17 7 9 1016.7 1016.2 0.0
03/11:30am 25.1 25.9 19.0 69 3.9 S 13 17 7 9 1016.9 1016.4 0.0
03/11:00am 24.9 25.4 19.3 71 3.6 S 15 17 8 9 1017.0 1016.5 0.0
03/10:30am 24.6 25.7 19.7 74 3.2 S 13 17 7 9 1017.0 1016.5 0.0
03/10:00am 24.5 26.1 20.0 76 2.9 SSW 11 15 6 8 1016.9 1016.4 0.0
03/09:30am 23.5 24.7 19.8 80 2.4 SW 13 17 7 9 1016.8 1016.3 0.0

Other Formats:

Comma delimited format used in spreadsheet applications
http://www.bom.gov.au/fwo/IDN60801/IDN60801.94599.axf

JavaScript Object Notation format (JSON) in row-major order
http://www.bom.gov.au/fwo/IDN60801/IDN60801.94599.json